createdAt,value
2022-09-28T00:01:33.066Z,100.00
2022-09-28T00:03:59.919Z,100.00
2022-09-28T00:06:29.062Z,100.00
2022-09-28T00:08:55.928Z,100.00
2022-09-28T00:11:23.936Z,100.00
2022-09-28T00:13:52.260Z,100.00
2022-09-28T00:16:22.801Z,100.00
2022-09-28T00:18:51.072Z,100.00
2022-09-28T00:21:19.851Z,100.00
2022-09-28T00:24:05.175Z,100.00
2022-09-28T00:26:33.255Z,100.00
2022-09-28T00:29:01.064Z,100.00
2022-09-28T00:31:30.253Z,100.00
2022-09-28T00:33:57.093Z,100.00
2022-09-28T00:36:25.454Z,100.00
2022-09-28T00:38:52.288Z,100.00
2022-09-28T00:41:18.874Z,100.00
2022-09-28T00:43:45.102Z,100.00
2022-09-28T00:46:21.396Z,100.00
2022-09-28T00:48:56.814Z,100.00
2022-09-28T00:51:23.889Z,100.00
2022-09-28T00:53:50.829Z,100.00
2022-09-28T00:56:19.189Z,100.00
2022-09-28T00:58:51.696Z,100.00
2022-09-28T01:01:18.605Z,100.00
2022-09-28T01:03:46.572Z,100.00
2022-09-28T01:06:20.404Z,100.00
2022-09-28T01:08:50.561Z,100.00
2022-09-28T01:11:18.141Z,100.00
2022-09-28T01:13:44.899Z,100.00
2022-09-28T01:16:46.859Z,100.00
2022-09-28T01:19:28.920Z,100.00
2022-09-28T01:22:26.647Z,100.00
2022-09-28T01:25:33.321Z,100.00
2022-09-28T01:28:12.637Z,100.00
2022-09-28T01:30:58.667Z,100.00
2022-09-28T01:33:30.060Z,100.00
2022-09-28T01:36:05.743Z,100.00
2022-09-28T01:38:35.968Z,100.00
2022-09-28T01:41:03.306Z,100.00
2022-09-28T01:43:30.694Z,100.00
2022-09-28T01:46:03.372Z,100.00
2022-09-28T01:48:33.745Z,100.00
2022-09-28T01:51:03.466Z,100.00
2022-09-28T01:53:36.549Z,100.00
2022-09-28T01:56:11.642Z,100.00
2022-09-28T01:58:43.207Z,100.00
2022-09-28T02:01:15.632Z,100.00
2022-09-28T02:03:50.073Z,100.00
2022-09-28T02:06:20.390Z,100.00
2022-09-28T02:08:50.919Z,100.00
2022-09-28T02:11:20.002Z,100.00
2022-09-28T02:14:05.121Z,100.00
2022-09-28T02:16:42.801Z,100.00
2022-09-28T02:19:25.838Z,100.00
2022-09-28T02:21:58.581Z,100.00
2022-09-28T02:24:37.852Z,100.00
2022-09-28T02:27:12.963Z,100.00
2022-09-28T02:29:40.535Z,100.00
2022-09-28T02:32:06.805Z,100.00
2022-09-28T02:34:33.420Z,100.00
2022-09-28T02:37:01.739Z,100.00
2022-09-28T02:39:28.128Z,100.00
2022-09-28T02:42:17.209Z,100.00
2022-09-28T02:45:09.707Z,100.00
2022-09-28T02:48:03.324Z,100.00
2022-09-28T02:51:06.066Z,100.00
2022-09-28T02:53:53.719Z,100.00
2022-09-28T02:56:32.370Z,100.00
2022-09-28T02:59:08.066Z,100.00
2022-09-28T03:01:48.084Z,100.00
2022-09-28T03:04:35.710Z,100.00
2022-09-28T03:07:21.583Z,100.00
2022-09-28T03:10:08.161Z,100.00
2022-09-28T03:12:35.046Z,100.00
2022-09-28T03:15:34.115Z,100.00
2022-09-28T03:18:00.981Z,100.00
2022-09-28T03:20:28.950Z,100.00
2022-09-28T03:23:22.794Z,100.00
2022-09-28T03:25:41.765Z,100.00
2022-09-28T03:28:08.005Z,100.00
2022-09-28T03:30:34.891Z,100.00
2022-09-28T03:33:02.501Z,100.00
2022-09-28T03:35:29.869Z,100.00
2022-09-28T03:37:56.605Z,100.00
2022-09-28T03:40:23.491Z,100.00
2022-09-28T03:42:49.850Z,100.00
2022-09-28T03:45:16.251Z,100.00
2022-09-28T03:47:47.473Z,100.00
2022-09-28T03:50:13.963Z,100.00
2022-09-28T03:52:40.273Z,100.00
2022-09-28T03:55:07.282Z,100.00
2022-09-28T03:57:34.068Z,100.00
2022-09-28T04:00:00.431Z,100.00
2022-09-28T04:02:27.400Z,100.00
2022-09-28T04:04:53.923Z,100.00
2022-09-28T04:07:20.664Z,100.00
2022-09-28T04:09:46.882Z,100.00
2022-09-28T04:12:13.384Z,100.00
2022-09-28T04:14:39.651Z,100.00
2022-09-28T04:17:07.142Z,100.00
2022-09-28T04:19:33.959Z,100.00
2022-09-28T04:22:02.023Z,100.00
2022-09-28T04:24:28.726Z,100.00
2022-09-28T04:27:16.132Z,100.00
2022-09-28T04:29:43.075Z,100.00
2022-09-28T04:32:10.399Z,100.00
2022-09-28T04:34:41.865Z,100.00
2022-09-28T04:37:10.755Z,100.00
2022-09-28T04:39:37.377Z,100.00
2022-09-28T04:42:03.685Z,100.00
2022-09-28T04:44:30.288Z,100.00
2022-09-28T04:46:57.704Z,100.00
2022-09-28T04:49:35.294Z,100.00
2022-09-28T04:52:01.783Z,100.00
2022-09-28T04:54:28.051Z,100.00
2022-09-28T04:56:55.982Z,100.00
2022-09-28T04:59:22.217Z,100.00
2022-09-28T05:01:49.461Z,100.00
2022-09-28T05:04:17.357Z,100.00
2022-09-28T05:06:44.654Z,100.00
2022-09-28T05:09:11.701Z,100.00
2022-09-28T05:11:38.229Z,100.00
2022-09-28T05:14:05.962Z,100.00
2022-09-28T05:16:33.913Z,100.00
2022-09-28T05:19:06.539Z,100.00
2022-09-28T05:21:32.860Z,100.00
2022-09-28T05:23:59.156Z,100.00
2022-09-28T05:26:25.928Z,100.00
2022-09-28T05:28:52.214Z,100.00
2022-09-28T05:31:20.429Z,100.00
2022-09-28T05:33:47.888Z,100.00
2022-09-28T05:36:14.259Z,100.00
2022-09-28T05:38:41.676Z,100.00
2022-09-28T05:41:09.199Z,100.00
2022-09-28T05:43:36.302Z,100.00
2022-09-28T05:46:03.332Z,100.00
2022-09-28T05:48:30.469Z,100.00
2022-09-28T05:50:58.783Z,100.00
2022-09-28T05:53:25.847Z,100.00
2022-09-28T05:55:52.476Z,100.00
2022-09-28T05:58:18.776Z,100.00
2022-09-28T06:00:45.122Z,100.00
2022-09-28T06:03:14.150Z,100.00
2022-09-28T06:05:41.309Z,100.00
2022-09-28T06:08:10.375Z,100.00
2022-09-28T06:10:38.208Z,100.00
2022-09-28T06:13:04.639Z,100.00
2022-09-28T06:15:32.454Z,100.00
2022-09-28T06:18:03.825Z,100.00
2022-09-28T06:20:34.804Z,100.00
2022-09-28T06:23:04.076Z,100.00
2022-09-28T06:25:30.843Z,100.00
2022-09-28T06:28:02.731Z,100.00
2022-09-28T06:30:31.217Z,100.00
2022-09-28T06:33:00.258Z,100.00
2022-09-28T06:35:28.078Z,100.00
2022-09-28T06:37:54.609Z,100.00
2022-09-28T06:40:21.924Z,100.00
2022-09-28T06:43:15.393Z,100.00
2022-09-28T06:45:51.707Z,100.00
2022-09-28T06:48:18.944Z,100.00
2022-09-28T06:50:47.570Z,100.00
2022-09-28T06:53:15.927Z,100.00
2022-09-28T06:55:49.023Z,100.00
2022-09-28T06:58:18.185Z,100.00
2022-09-28T07:00:44.448Z,100.00
2022-09-28T07:03:13.532Z,100.00
2022-09-28T07:05:49.573Z,100.00
2022-09-28T07:08:17.528Z,100.00
2022-09-28T07:10:49.334Z,100.00
2022-09-28T07:13:42.373Z,100.00
2022-09-28T07:16:03.976Z,100.00
2022-09-28T07:18:31.037Z,100.00
2022-09-28T07:20:57.558Z,100.00
2022-09-28T07:23:27.846Z,100.00
2022-09-28T07:26:09.748Z,100.00
2022-09-28T07:28:38.132Z,100.00
2022-09-28T07:31:05.571Z,100.00
2022-09-28T07:33:32.626Z,99.89
2022-09-28T07:36:02.745Z,93.87
2022-09-28T07:38:29.320Z,90.42
2022-09-28T07:41:11.412Z,85.61
2022-09-28T07:43:39.991Z,76.49
2022-09-28T07:46:12.177Z,76.02
2022-09-28T07:48:43.538Z,70.54
2022-09-28T07:51:10.567Z,68.75
2022-09-28T07:53:38.396Z,69.19
2022-09-28T07:56:09.189Z,61.08
2022-09-28T07:58:37.174Z,64.22
2022-09-28T08:01:11.207Z,58.78
2022-09-28T08:03:38.947Z,59.27
2022-09-28T08:06:12.556Z,59.47
2022-09-28T08:08:43.820Z,58.87
2022-09-28T08:11:18.751Z,57.14
2022-09-28T08:13:46.508Z,56.67
2022-09-28T08:16:13.333Z,55.20
2022-09-28T08:18:39.928Z,51.51
2022-09-28T08:21:25.845Z,50.96
2022-09-28T08:23:53.135Z,51.70
2022-09-28T08:26:19.849Z,49.78
2022-09-28T08:28:47.845Z,48.08
2022-09-28T08:31:18.677Z,45.62
2022-09-28T08:33:47.945Z,47.27
2022-09-28T08:36:24.189Z,46.33
2022-09-28T08:38:52.174Z,45.38
2022-09-28T08:41:18.463Z,43.67
2022-09-28T08:44:00.638Z,42.96
2022-09-28T08:47:01.574Z,43.65
2022-09-28T08:49:34.705Z,41.93
2022-09-28T08:52:25.216Z,42.42
2022-09-28T08:54:54.559Z,40.88
2022-09-28T08:57:32.433Z,40.08
2022-09-28T08:59:59.825Z,37.25
2022-09-28T09:02:34.079Z,39.21
2022-09-28T09:05:07.592Z,38.63
2022-09-28T09:08:11.375Z,38.61
2022-09-28T09:11:05.718Z,37.53
2022-09-28T09:13:51.705Z,37.46
2022-09-28T09:16:32.564Z,36.85
2022-09-28T09:19:17.665Z,38.42
2022-09-28T09:22:00.437Z,37.01
2022-09-28T09:24:41.343Z,36.71
2022-09-28T09:27:32.288Z,35.83
2022-09-28T09:30:17.455Z,35.57
2022-09-28T09:33:26.628Z,34.63
2022-09-28T09:36:06.562Z,34.18
2022-09-28T09:38:52.482Z,34.73
2022-09-28T09:41:35.254Z,32.65
2022-09-28T09:44:09.323Z,32.50
2022-09-28T09:47:12.298Z,31.86
2022-09-28T09:49:45.385Z,32.09
2022-09-28T09:52:21.952Z,33.15
2022-09-28T09:54:54.651Z,33.51
2022-09-28T09:57:35.022Z,31.12
2022-09-28T10:00:02.859Z,31.86
2022-09-28T10:02:40.923Z,31.54
2022-09-28T10:05:11.327Z,32.15
2022-09-28T10:07:56.352Z,32.50
2022-09-28T10:10:27.855Z,32.64
2022-09-28T10:12:55.740Z,31.49
2022-09-28T10:15:30.002Z,32.09
2022-09-28T10:18:03.881Z,29.86
2022-09-28T10:20:43.505Z,29.97
2022-09-28T10:23:23.092Z,31.98
2022-09-28T10:25:51.878Z,30.82
2022-09-28T10:28:24.942Z,31.79
2022-09-28T10:30:51.970Z,30.39
2022-09-28T10:33:31.658Z,29.83
2022-09-28T10:36:00.157Z,29.17
2022-09-28T10:38:28.187Z,29.75
2022-09-28T10:40:59.218Z,30.43
2022-09-28T10:43:39.463Z,32.03
2022-09-28T10:46:08.523Z,30.92
2022-09-28T10:48:52.452Z,30.90
2022-09-28T10:51:19.124Z,29.84
2022-09-28T10:54:01.994Z,33.23
2022-09-28T10:56:35.965Z,31.67
2022-09-28T10:59:02.947Z,31.03
2022-09-28T11:01:33.076Z,31.11
2022-09-28T11:04:04.880Z,30.16
2022-09-28T11:06:36.090Z,30.49
2022-09-28T11:09:05.759Z,31.02
2022-09-28T11:11:40.573Z,30.89
2022-09-28T11:14:42.228Z,30.48
2022-09-28T11:17:29.263Z,31.20
2022-09-28T11:20:01.754Z,31.40
2022-09-28T11:22:32.801Z,30.68
2022-09-28T11:25:24.374Z,32.06
2022-09-28T11:27:50.857Z,29.89
2022-09-28T11:30:24.639Z,30.51
2022-09-28T11:32:53.155Z,29.99
2022-09-28T11:36:03.577Z,30.55
2022-09-28T11:38:42.938Z,31.15
2022-09-28T11:41:35.150Z,31.59
2022-09-28T11:44:07.592Z,32.89
2022-09-28T11:46:46.028Z,33.60
2022-09-28T11:49:15.319Z,32.87
2022-09-28T11:51:43.558Z,32.73
2022-09-28T11:54:34.051Z,33.22
2022-09-28T11:57:02.631Z,33.33
2022-09-28T11:59:39.982Z,36.39
2022-09-28T12:02:09.967Z,35.85
2022-09-28T12:04:40.840Z,36.42
2022-09-28T12:07:11.772Z,39.82
2022-09-28T12:09:43.404Z,40.89
2022-09-28T12:12:32.754Z,40.91
2022-09-28T12:15:06.002Z,41.87
2022-09-28T12:17:40.279Z,42.46
2022-09-28T12:20:28.564Z,45.98
2022-09-28T12:23:05.402Z,43.58
2022-09-28T12:25:40.329Z,44.62
2022-09-28T12:28:13.000Z,45.63
2022-09-28T12:30:40.684Z,45.68
2022-09-28T12:33:15.242Z,47.60
2022-09-28T12:36:03.774Z,48.03
2022-09-28T12:38:42.282Z,46.85
2022-09-28T12:41:22.569Z,45.82
2022-09-28T12:44:24.483Z,46.21
2022-09-28T12:47:17.627Z,46.54
2022-09-28T12:50:36.533Z,47.07
2022-09-28T12:52:51.619Z,47.66
2022-09-28T12:55:39.831Z,46.94
2022-09-28T12:58:25.401Z,48.19
2022-09-28T13:01:18.216Z,48.53
2022-09-28T13:04:17.229Z,47.75
2022-09-28T13:06:57.162Z,47.46
2022-09-28T13:09:25.322Z,47.21
2022-09-28T13:12:16.162Z,48.10
2022-09-28T13:15:03.687Z,48.87
2022-09-28T13:17:48.595Z,47.96
2022-09-28T13:20:21.319Z,47.73
2022-09-28T13:22:56.006Z,47.51
2022-09-28T13:25:25.304Z,46.98
2022-09-28T13:27:56.755Z,46.84
2022-09-28T13:30:23.087Z,47.34
2022-09-28T13:32:50.232Z,46.91
2022-09-28T13:35:21.214Z,47.19
2022-09-28T13:37:48.723Z,48.74
2022-09-28T13:40:14.986Z,49.21
2022-09-28T13:42:44.897Z,49.60
2022-09-28T13:45:20.318Z,49.99
2022-09-28T13:48:05.317Z,48.75
2022-09-28T13:50:38.868Z,49.72
2022-09-28T13:53:11.795Z,50.37
2022-09-28T13:55:51.294Z,50.45
2022-09-28T13:58:28.318Z,50.95
2022-09-28T14:01:28.488Z,50.85
2022-09-28T14:03:57.195Z,50.85
2022-09-28T14:06:31.872Z,52.24
2022-09-28T14:08:58.340Z,51.11
2022-09-28T14:11:27.874Z,51.61
2022-09-28T14:14:00.372Z,51.24
2022-09-28T14:16:35.763Z,50.84
2022-09-28T14:19:26.652Z,49.47
2022-09-28T14:22:30.343Z,48.24
2022-09-28T14:25:17.271Z,48.09
2022-09-28T14:28:00.202Z,48.03
2022-09-28T14:30:49.617Z,48.48
2022-09-28T14:33:24.554Z,48.96
2022-09-28T14:36:02.215Z,50.02
2022-09-28T14:38:53.346Z,50.80
2022-09-28T14:41:26.263Z,51.23
2022-09-28T14:44:04.679Z,53.23
2022-09-28T14:46:33.632Z,53.73
2022-09-28T14:49:20.380Z,54.45
2022-09-28T14:52:14.412Z,54.54
2022-09-28T14:54:45.845Z,55.99
2022-09-28T14:57:14.724Z,55.94
2022-09-28T14:59:43.524Z,56.03
2022-09-28T15:02:20.064Z,57.04
2022-09-28T15:04:53.186Z,57.73
2022-09-28T15:07:29.282Z,58.63
2022-09-28T15:09:57.664Z,57.53
2022-09-28T15:12:28.952Z,58.07
2022-09-28T15:15:02.243Z,58.81
2022-09-28T15:17:33.657Z,58.94
2022-09-28T15:20:21.649Z,59.27
2022-09-28T15:22:49.980Z,59.50
2022-09-28T15:25:20.542Z,60.47
2022-09-28T15:27:57.613Z,64.13
2022-09-28T15:30:33.202Z,65.26
2022-09-28T15:33:19.763Z,63.33
2022-09-28T15:36:05.195Z,64.31
2022-09-28T15:38:33.343Z,64.32
2022-09-28T15:41:04.451Z,64.44
2022-09-28T15:43:33.462Z,65.20
2022-09-28T15:46:15.454Z,66.75
2022-09-28T15:49:00.287Z,68.49
2022-09-28T15:51:28.447Z,69.84
2022-09-28T15:53:59.299Z,68.86
2022-09-28T15:56:26.954Z,69.07
2022-09-28T15:59:15.610Z,69.96
2022-09-28T16:01:45.816Z,70.85
2022-09-28T16:04:38.797Z,72.02
2022-09-28T16:07:27.724Z,72.17
2022-09-28T16:10:12.697Z,76.23
2022-09-28T16:13:05.145Z,74.65
2022-09-28T16:15:37.356Z,77.67
2022-09-28T16:18:22.104Z,78.69
2022-09-28T16:20:52.250Z,80.00
2022-09-28T16:23:26.906Z,81.57
2022-09-28T16:25:59.755Z,82.78
2022-09-28T16:28:31.344Z,84.76
2022-09-28T16:31:22.862Z,85.37
2022-09-28T16:34:02.375Z,88.78
2022-09-28T16:36:39.920Z,88.88
2022-09-28T16:39:06.489Z,89.80
2022-09-28T16:41:33.224Z,91.21
2022-09-28T16:44:02.250Z,91.41
2022-09-28T16:46:36.280Z,91.91
2022-09-28T16:49:05.760Z,92.00
2022-09-28T16:51:32.936Z,93.36
2022-09-28T16:54:25.308Z,94.26
2022-09-28T16:56:51.829Z,94.33
2022-09-28T16:59:18.091Z,94.24
2022-09-28T17:01:44.501Z,93.86
2022-09-28T17:04:12.056Z,95.39
2022-09-28T17:06:38.796Z,96.30
2022-09-28T17:09:07.033Z,96.06
2022-09-28T17:11:33.650Z,96.68
2022-09-28T17:14:00.110Z,97.19
2022-09-28T17:16:57.369Z,98.21
2022-09-28T17:19:23.528Z,98.21
2022-09-28T17:21:51.200Z,98.72
2022-09-28T17:24:18.758Z,98.91
2022-09-28T17:26:47.234Z,99.02
2022-09-28T17:29:14.569Z,100.00
2022-09-28T17:31:42.603Z,100.00
2022-09-28T17:34:10.056Z,100.00
2022-09-28T17:36:36.511Z,100.00
2022-09-28T17:39:03.760Z,100.00
2022-09-28T17:41:30.002Z,100.00
2022-09-28T17:43:56.501Z,100.00
2022-09-28T17:46:32.282Z,100.00
2022-09-28T17:49:00.499Z,100.00
2022-09-28T17:51:32.316Z,100.00
2022-09-28T17:54:00.859Z,100.00
2022-09-28T17:56:31.947Z,100.00
2022-09-28T17:59:00.401Z,100.00
2022-09-28T18:01:30.079Z,100.00
2022-09-28T18:03:56.635Z,100.00
2022-09-28T18:06:23.702Z,100.00
2022-09-28T18:08:50.097Z,100.00
2022-09-28T18:11:17.379Z,100.00
2022-09-28T18:13:45.890Z,100.00
2022-09-28T18:16:13.113Z,100.00
2022-09-28T18:18:39.926Z,100.00
2022-09-28T18:21:06.997Z,100.00
2022-09-28T18:23:37.598Z,100.00
2022-09-28T18:26:05.145Z,100.00
2022-09-28T18:28:31.336Z,100.00
2022-09-28T18:30:57.654Z,100.00
2022-09-28T18:33:24.204Z,100.00
2022-09-28T18:35:54.412Z,100.00
2022-09-28T18:38:21.036Z,100.00
2022-09-28T18:40:48.314Z,100.00
2022-09-28T18:43:15.136Z,100.00
2022-09-28T18:45:41.739Z,100.00
2022-09-28T18:48:08.261Z,100.00
2022-09-28T18:50:35.179Z,100.00
2022-09-28T18:53:11.788Z,100.00
2022-09-28T18:55:40.171Z,100.00
2022-09-28T18:58:08.154Z,100.00
2022-09-28T19:00:34.680Z,99.95
2022-09-28T19:03:02.043Z,99.00
2022-09-28T19:05:28.397Z,98.55
2022-09-28T19:07:55.114Z,98.06
2022-09-28T19:10:21.617Z,97.79
2022-09-28T19:12:48.060Z,97.79
2022-09-28T19:15:14.464Z,97.32
2022-09-28T19:17:40.979Z,96.91
2022-09-28T19:20:07.657Z,96.47
2022-09-28T19:22:33.933Z,96.51
2022-09-28T19:25:00.528Z,95.90
2022-09-28T19:27:26.736Z,95.52
2022-09-28T19:29:53.014Z,95.51
2022-09-28T19:32:19.515Z,95.43
2022-09-28T19:34:45.751Z,95.49
2022-09-28T19:37:12.063Z,95.27
2022-09-28T19:39:38.574Z,94.27
2022-09-28T19:42:05.127Z,93.76
2022-09-28T19:44:33.239Z,93.36
2022-09-28T19:47:07.963Z,93.27
2022-09-28T19:49:37.046Z,92.92
2022-09-28T19:52:17.769Z,92.95
2022-09-28T19:54:45.905Z,92.82
2022-09-28T19:57:15.662Z,92.13
2022-09-28T19:59:42.068Z,92.55
2022-09-28T20:02:08.645Z,91.99
2022-09-28T20:04:35.283Z,91.39
2022-09-28T20:07:02.038Z,90.46
2022-09-28T20:09:28.296Z,88.86
2022-09-28T20:11:55.032Z,88.33
2022-09-28T20:14:23.357Z,88.26
2022-09-28T20:16:52.047Z,87.85
2022-09-28T20:19:21.394Z,87.88
2022-09-28T20:21:51.042Z,87.91
2022-09-28T20:24:17.413Z,87.84
2022-09-28T20:26:45.683Z,87.54
2022-09-28T20:29:12.130Z,87.30
2022-09-28T20:31:38.756Z,87.55
2022-09-28T20:34:06.112Z,87.42
2022-09-28T20:36:32.620Z,87.08
2022-09-28T20:39:02.631Z,87.29
2022-09-28T20:41:35.495Z,86.86
2022-09-28T20:44:05.436Z,87.19
2022-09-28T20:46:33.158Z,87.42
2022-09-28T20:48:59.672Z,87.09
2022-09-28T20:51:26.085Z,88.30
2022-09-28T20:53:54.452Z,87.77
2022-09-28T20:56:29.153Z,88.06
2022-09-28T20:58:55.920Z,88.90
2022-09-28T21:01:24.551Z,88.43
2022-09-28T21:03:53.127Z,89.06
2022-09-28T21:06:21.874Z,88.88
2022-09-28T21:08:49.535Z,90.30
2022-09-28T21:11:17.848Z,91.52
2022-09-28T21:13:44.638Z,90.66
2022-09-28T21:16:12.206Z,90.83
2022-09-28T21:18:39.572Z,89.89
2022-09-28T21:21:07.828Z,88.94
2022-09-28T21:23:34.961Z,89.09
2022-09-28T21:26:02.959Z,88.50
2022-09-28T21:28:29.487Z,88.02
2022-09-28T21:30:55.840Z,87.26
2022-09-28T21:33:22.096Z,87.74
2022-09-28T21:35:48.653Z,87.52
2022-09-28T21:38:14.889Z,87.51
2022-09-28T21:40:41.907Z,87.55
2022-09-28T21:43:08.504Z,87.88
2022-09-28T21:45:34.732Z,87.79
2022-09-28T21:48:01.215Z,88.06
2022-09-28T21:50:27.751Z,89.83
2022-09-28T21:52:54.980Z,89.67
2022-09-28T21:55:22.797Z,89.17
2022-09-28T21:57:50.797Z,88.68
2022-09-28T22:00:19.875Z,88.46
2022-09-28T22:02:46.520Z,89.07
2022-09-28T22:05:13.462Z,89.04
2022-09-28T22:07:41.235Z,89.59
2022-09-28T22:10:10.521Z,89.26
2022-09-28T22:12:36.768Z,88.91
2022-09-28T22:15:03.689Z,91.65
2022-09-28T22:17:30.183Z,91.33
2022-09-28T22:19:56.812Z,90.35
2022-09-28T22:22:25.210Z,90.63
2022-09-28T22:24:56.091Z,93.35
2022-09-28T22:27:22.311Z,94.55
2022-09-28T22:29:50.994Z,95.25
2022-09-28T22:32:17.537Z,96.11
2022-09-28T22:34:43.735Z,96.19
2022-09-28T22:37:10.012Z,96.51
2022-09-28T22:39:37.846Z,94.93
2022-09-28T22:42:04.347Z,96.94
2022-09-28T22:44:30.550Z,95.99
2022-09-28T22:46:57.095Z,94.65
2022-09-28T22:49:23.705Z,94.72
2022-09-28T22:51:49.942Z,93.60
2022-09-28T22:54:16.566Z,93.55
2022-09-28T22:56:43.616Z,92.63
2022-09-28T22:59:11.464Z,92.40
2022-09-28T23:01:38.307Z,92.75
2022-09-28T23:04:04.562Z,92.45
2022-09-28T23:06:30.993Z,92.13
2022-09-28T23:08:57.663Z,92.28
2022-09-28T23:11:23.906Z,92.74
2022-09-28T23:13:51.216Z,92.39
2022-09-28T23:16:18.456Z,92.64
2022-09-28T23:18:44.748Z,92.44
2022-09-28T23:21:13.258Z,92.10
2022-09-28T23:23:39.809Z,93.06
2022-09-28T23:26:14.394Z,93.03
2022-09-28T23:28:41.134Z,93.01
2022-09-28T23:31:12.057Z,93.40
2022-09-28T23:33:38.351Z,94.05
2022-09-28T23:36:05.484Z,94.03
2022-09-28T23:38:31.812Z,94.90
2022-09-28T23:40:58.165Z,95.65
2022-09-28T23:43:24.763Z,95.88
2022-09-28T23:45:51.143Z,97.06
2022-09-28T23:48:17.366Z,97.89
2022-09-28T23:50:44.977Z,100.00
2022-09-28T23:53:14.085Z,100.00
2022-09-28T23:55:41.711Z,100.00
2022-09-28T23:58:08.473Z,100.00
